createdAt,value
2022-12-03T00:02:21.759Z,44.22
2022-12-03T00:04:48.355Z,43.47
2022-12-03T00:07:14.850Z,35.25
2022-12-03T00:09:41.282Z,34.30
2022-12-03T00:12:07.680Z,34.35
2022-12-03T00:14:34.149Z,50.53
2022-12-03T00:17:00.589Z,41.70
2022-12-03T00:19:27.013Z,39.38
2022-12-03T00:21:53.904Z,35.40
2022-12-03T00:24:20.336Z,42.22
2022-12-03T00:26:46.745Z,38.30
2022-12-03T00:29:13.219Z,38.37
2022-12-03T00:31:39.694Z,29.10
2022-12-03T00:34:06.117Z,39.92
2022-12-03T00:36:32.554Z,43.67
2022-12-03T00:38:58.976Z,40.55
2022-12-03T00:41:25.391Z,37.03
2022-12-03T00:43:52.850Z,47.80
2022-12-03T00:46:21.986Z,48.40
2022-12-03T00:48:48.514Z,43.13
2022-12-03T00:51:15.082Z,39.67
2022-12-03T00:53:41.532Z,43.63
2022-12-03T00:56:08.371Z,46.30
2022-12-03T00:58:34.886Z,36.00
2022-12-03T01:01:01.391Z,27.98
2022-12-03T01:03:27.964Z,49.10
2022-12-03T01:05:56.490Z,52.20
2022-12-03T01:08:24.342Z,43.38
2022-12-03T01:10:50.759Z,53.30
2022-12-03T01:13:17.244Z,40.85
2022-12-03T01:15:43.733Z,30.83
2022-12-03T01:18:10.208Z,43.90
2022-12-03T01:20:38.502Z,34.33
2022-12-03T01:23:05.218Z,47.05
2022-12-03T01:25:32.890Z,46.15
2022-12-03T01:27:59.365Z,44.92
2022-12-03T01:30:25.804Z,43.07
2022-12-03T01:32:52.238Z,41.17
2022-12-03T01:35:18.809Z,43.13
2022-12-03T01:37:45.212Z,51.00
2022-12-03T01:40:16.177Z,47.13
2022-12-03T01:42:42.833Z,50.87
2022-12-03T01:45:21.504Z,45.40
2022-12-03T01:47:48.078Z,46.08
2022-12-03T01:50:19.897Z,31.20
2022-12-03T01:52:47.386Z,52.40
2022-12-03T01:55:16.790Z,38.40
2022-12-03T01:57:49.748Z,49.90
2022-12-03T02:00:18.747Z,41.78
2022-12-03T02:02:45.622Z,29.65
2022-12-03T02:05:18.987Z,46.70
2022-12-03T02:07:45.562Z,22.97
2022-12-03T02:10:13.641Z,46.60
2022-12-03T02:12:44.268Z,30.52
2022-12-03T02:15:11.130Z,44.22
2022-12-03T02:17:37.742Z,47.58
2022-12-03T02:20:06.094Z,41.70
2022-12-03T02:22:54.405Z,41.63
2022-12-03T02:25:23.515Z,39.15
2022-12-03T02:27:50.518Z,42.50
2022-12-03T02:30:20.321Z,40.30
2022-12-03T02:32:47.803Z,37.50
2022-12-03T02:35:19.803Z,47.45
2022-12-03T02:37:48.222Z,46.50
2022-12-03T02:40:19.029Z,37.72
2022-12-03T02:42:50.469Z,23.48
2022-12-03T02:45:21.500Z,46.97
2022-12-03T02:47:53.361Z,38.38
2022-12-03T02:50:22.310Z,28.98
2022-12-03T02:52:49.330Z,44.60
2022-12-03T02:55:16.573Z,49.70
2022-12-03T02:57:48.099Z,42.87
2022-12-03T03:00:15.575Z,38.50
2022-12-03T03:02:44.667Z,45.40
2022-12-03T03:05:12.560Z,49.47
2022-12-03T03:07:39.683Z,39.65
2022-12-03T03:10:07.777Z,42.03
2022-12-03T03:12:39.284Z,52.95
2022-12-03T03:15:08.165Z,34.60
2022-12-03T03:17:35.078Z,42.00
2022-12-03T03:20:02.529Z,42.70
2022-12-03T03:22:40.186Z,25.73
2022-12-03T03:25:13.121Z,42.00
2022-12-03T03:27:40.893Z,39.95
2022-12-03T03:30:16.061Z,40.22
2022-12-03T03:32:42.799Z,51.72
2022-12-03T03:35:10.214Z,27.80
2022-12-03T03:37:36.740Z,49.47
2022-12-03T03:40:03.407Z,26.92
2022-12-03T03:42:29.857Z,43.20
2022-12-03T03:44:56.440Z,46.58
2022-12-03T03:47:23.826Z,42.27
2022-12-03T03:49:50.865Z,42.83
2022-12-03T03:52:19.038Z,31.08
2022-12-03T03:54:45.850Z,44.22
2022-12-03T03:57:12.534Z,45.00
2022-12-03T03:59:38.961Z,43.77
2022-12-03T04:02:05.386Z,48.22
2022-12-03T04:04:35.751Z,43.90
2022-12-03T04:07:02.635Z,39.17
2022-12-03T04:09:31.654Z,36.88
2022-12-03T04:12:17.539Z,44.40
2022-12-03T04:14:44.002Z,30.35
2022-12-03T04:17:12.999Z,20.92
2022-12-03T04:19:39.447Z,25.10
2022-12-03T04:22:24.333Z,38.40
2022-12-03T04:24:51.185Z,21.57
2022-12-03T04:27:36.280Z,45.40
2022-12-03T04:30:04.529Z,41.33
2022-12-03T04:32:52.437Z,43.67
2022-12-03T04:35:44.393Z,35.38
2022-12-03T04:38:12.210Z,14.27
2022-12-03T04:40:58.899Z,43.75
2022-12-03T04:43:27.413Z,37.47
2022-12-03T04:45:54.696Z,38.75
2022-12-03T04:48:21.194Z,44.72
2022-12-03T04:50:50.609Z,43.37
2022-12-03T04:53:17.028Z,49.35
2022-12-03T04:55:43.470Z,41.40
2022-12-03T04:58:10.123Z,33.92
2022-12-03T05:00:36.618Z,36.45
2022-12-03T05:03:03.259Z,37.43
2022-12-03T05:05:29.751Z,42.67
2022-12-03T05:07:57.295Z,44.55
2022-12-03T05:10:23.820Z,27.98
2022-12-03T05:12:50.240Z,33.80
2022-12-03T05:15:16.739Z,33.37
2022-12-03T05:17:43.205Z,36.15
2022-12-03T05:20:52.930Z,47.63
2022-12-03T05:23:21.678Z,39.50
2022-12-03T05:25:48.309Z,42.15
2022-12-03T05:28:14.778Z,41.70
2022-12-03T05:30:41.581Z,46.78
2022-12-03T05:33:08.097Z,48.80
2022-12-03T05:35:34.521Z,47.58
2022-12-03T05:38:01.275Z,46.88
2022-12-03T05:40:28.043Z,43.87
2022-12-03T05:42:54.550Z,46.97
2022-12-03T05:46:03.425Z,40.92
2022-12-03T05:48:29.893Z,44.75
2022-12-03T05:50:56.371Z,39.28
2022-12-03T05:53:22.917Z,40.97
2022-12-03T05:55:49.331Z,53.58
2022-12-03T05:58:15.750Z,51.22
2022-12-03T06:00:44.949Z,52.70
2022-12-03T06:03:11.624Z,46.17
2022-12-03T06:05:38.305Z,55.10
2022-12-03T06:08:05.056Z,47.33
2022-12-03T06:10:31.583Z,40.53
2022-12-03T06:12:58.003Z,34.45
2022-12-03T06:15:24.538Z,55.00
2022-12-03T06:17:51.602Z,57.90
2022-12-03T06:20:19.772Z,57.47
2022-12-03T06:22:46.777Z,48.72
2022-12-03T06:25:14.358Z,49.38
2022-12-03T06:27:40.754Z,29.95
2022-12-03T06:30:08.959Z,46.63
2022-12-03T06:32:35.534Z,49.92
2022-12-03T06:35:02.202Z,45.40
2022-12-03T06:37:28.869Z,51.80
2022-12-03T06:39:55.302Z,46.42
2022-12-03T06:42:21.919Z,47.17
2022-12-03T06:44:48.545Z,42.63
2022-12-03T06:47:16.599Z,44.40
2022-12-03T06:49:43.057Z,28.20
2022-12-03T06:52:09.547Z,51.38
2022-12-03T06:54:36.003Z,47.10
2022-12-03T06:57:02.599Z,44.30
2022-12-03T06:59:35.251Z,35.05
2022-12-03T07:02:01.832Z,45.30
2022-12-03T07:04:28.266Z,42.30
2022-12-03T07:06:54.731Z,44.63
2022-12-03T07:09:59.189Z,60.05
2022-12-03T07:13:03.339Z,45.80
2022-12-03T07:15:29.847Z,48.40
2022-12-03T07:17:56.262Z,51.60
2022-12-03T07:20:22.850Z,49.17
2022-12-03T07:22:49.316Z,48.58
2022-12-03T07:25:19.652Z,52.75
2022-12-03T07:27:49.467Z,49.90
2022-12-03T07:30:16.385Z,48.75
2022-12-03T07:32:42.833Z,53.50
2022-12-03T07:35:09.680Z,46.67
2022-12-03T07:37:36.426Z,50.38
2022-12-03T07:40:03.571Z,51.58
2022-12-03T07:42:30.260Z,46.30
2022-12-03T07:44:56.808Z,52.10
2022-12-03T07:47:23.311Z,44.72
2022-12-03T07:49:49.847Z,49.03
2022-12-03T07:52:16.355Z,48.10
2022-12-03T07:54:43.659Z,53.50
2022-12-03T07:57:10.106Z,56.63
2022-12-03T07:59:36.727Z,56.92
2022-12-03T08:02:03.337Z,47.03
2022-12-03T08:04:54.496Z,51.15
2022-12-03T08:07:21.433Z,53.38
2022-12-03T08:09:47.954Z,51.23
2022-12-03T08:13:17.010Z,58.33
2022-12-03T08:15:44.007Z,49.17
2022-12-03T08:22:01.595Z,52.75
2022-12-03T08:24:29.253Z,58.40
2022-12-03T08:26:57.054Z,51.60
2022-12-03T08:29:24.915Z,59.83
2022-12-03T08:31:55.186Z,36.78
2022-12-03T08:34:23.957Z,53.72
2022-12-03T08:36:59.657Z,46.97
2022-12-03T08:39:30.256Z,49.35
2022-12-03T08:42:21.143Z,54.70
2022-12-03T08:44:47.710Z,50.67
2022-12-03T08:47:19.296Z,49.10
2022-12-03T08:49:51.729Z,52.07
2022-12-03T08:52:47.356Z,54.17
2022-12-03T08:55:35.630Z,55.35
2022-12-03T08:58:18.331Z,55.15
2022-12-03T09:00:52.057Z,55.78
2022-12-03T09:03:19.211Z,54.87
2022-12-03T09:05:45.640Z,53.35
2022-12-03T09:08:12.280Z,50.25
2022-12-03T09:10:38.775Z,54.90
2022-12-03T09:13:25.759Z,52.65
2022-12-03T09:15:53.477Z,48.23
2022-12-03T09:18:19.906Z,51.92
2022-12-03T09:20:46.347Z,56.15
2022-12-03T09:23:12.769Z,50.33
2022-12-03T09:25:39.215Z,45.75
2022-12-03T09:28:05.680Z,55.53
2022-12-03T09:30:32.159Z,58.70
2022-12-03T09:33:00.067Z,54.85
2022-12-03T09:35:27.559Z,43.40
2022-12-03T09:37:54.087Z,54.95
2022-12-03T09:40:21.269Z,50.07
2022-12-03T09:42:48.270Z,57.40
2022-12-03T09:45:15.855Z,52.45
2022-12-03T09:47:46.371Z,57.15
2022-12-03T09:50:16.678Z,59.70
2022-12-03T09:52:45.106Z,51.57
2022-12-03T09:55:15.796Z,54.95
2022-12-03T09:57:42.365Z,62.00
2022-12-03T10:00:26.667Z,53.97
2022-12-03T10:02:55.434Z,49.95
2022-12-03T10:05:22.767Z,54.53
2022-12-03T10:07:51.317Z,55.65
2022-12-03T10:10:21.641Z,61.42
2022-12-03T10:12:48.613Z,53.72
2022-12-03T10:15:17.542Z,58.97
2022-12-03T10:17:46.169Z,60.40
2022-12-03T10:20:14.199Z,47.97
2022-12-03T10:22:41.466Z,63.75
2022-12-03T10:25:11.767Z,60.65
2022-12-03T10:27:58.770Z,61.92
2022-12-03T10:30:30.795Z,61.23
2022-12-03T10:32:58.506Z,57.03
2022-12-03T10:35:36.788Z,58.88
2022-12-03T10:38:04.320Z,58.53
2022-12-03T10:40:36.172Z,55.63
2022-12-03T10:43:26.298Z,64.13
2022-12-03T10:46:04.199Z,61.50
2022-12-03T10:48:33.194Z,67.10
2022-12-03T10:51:13.739Z,62.70
2022-12-03T10:53:41.128Z,65.70
2022-12-03T10:56:15.451Z,59.60
2022-12-03T10:58:42.101Z,66.10
2022-12-03T11:01:23.009Z,69.95
2022-12-03T11:03:50.120Z,71.15
2022-12-03T11:06:18.911Z,72.72
2022-12-03T11:08:51.584Z,58.07
2022-12-03T11:11:23.909Z,58.78
2022-12-03T11:14:01.274Z,66.05
2022-12-03T11:16:42.143Z,68.32
2022-12-03T11:19:20.947Z,64.47
2022-12-03T11:22:05.814Z,56.03
2022-12-03T11:24:34.137Z,69.03
2022-12-03T11:27:00.504Z,65.93
2022-12-03T11:29:55.679Z,59.58
2022-12-03T11:32:43.707Z,61.28
2022-12-03T11:35:26.985Z,62.63
2022-12-03T11:38:37.990Z,62.90
2022-12-03T11:41:21.106Z,67.53
2022-12-03T11:44:00.951Z,65.97
2022-12-03T11:46:46.450Z,70.15
2022-12-03T11:49:27.677Z,72.33
2022-12-03T11:51:54.270Z,60.90
2022-12-03T11:54:25.862Z,66.32
2022-12-03T11:56:53.223Z,63.85
2022-12-03T11:59:20.218Z,56.03
2022-12-03T12:01:46.922Z,64.20
2022-12-03T12:04:32.777Z,54.53
2022-12-03T12:06:59.980Z,57.10
2022-12-03T12:09:58.950Z,60.15
2022-12-03T12:12:31.075Z,59.45
2022-12-03T12:14:58.855Z,53.43
2022-12-03T12:17:41.299Z,59.85
2022-12-03T12:20:27.475Z,50.10
2022-12-03T12:22:55.254Z,60.22
2022-12-03T12:25:53.910Z,53.17
2022-12-03T12:28:20.903Z,53.50
2022-12-03T12:30:48.477Z,60.63
2022-12-03T12:33:23.071Z,57.97
2022-12-03T12:35:49.659Z,59.42
2022-12-03T12:38:20.905Z,56.95
2022-12-03T12:40:49.382Z,58.20
2022-12-03T12:43:25.001Z,56.97
2022-12-03T12:45:56.578Z,53.13
2022-12-03T12:48:35.986Z,51.28
2022-12-03T12:51:18.758Z,51.15
2022-12-03T12:53:47.665Z,48.83
2022-12-03T12:56:33.624Z,50.75
2022-12-03T12:59:25.905Z,58.75
2022-12-03T13:01:52.636Z,53.20
2022-12-03T13:04:23.702Z,53.83
2022-12-03T13:06:54.969Z,52.50
2022-12-03T13:09:23.922Z,60.22
2022-12-03T13:12:10.154Z,48.65
2022-12-03T13:14:37.328Z,59.40
2022-12-03T13:17:24.715Z,52.90
2022-12-03T13:20:00.496Z,51.30
2022-12-03T13:22:33.180Z,49.00
2022-12-03T13:25:27.956Z,51.40
2022-12-03T13:28:23.847Z,51.92
2022-12-03T13:30:52.964Z,49.30
2022-12-03T13:33:26.817Z,51.93
2022-12-03T13:35:56.926Z,48.95
2022-12-03T13:38:25.073Z,55.88
2022-12-03T13:40:59.468Z,55.20
2022-12-03T13:43:31.341Z,57.55
2022-12-03T13:45:58.202Z,50.63
2022-12-03T13:48:31.560Z,58.72
2022-12-03T13:51:01.982Z,58.17
2022-12-03T13:53:37.479Z,60.30
2022-12-03T13:56:27.466Z,49.17
2022-12-03T13:58:54.923Z,51.50
2022-12-03T14:01:21.677Z,51.70
2022-12-03T14:03:48.309Z,36.25
2022-12-03T14:06:14.793Z,24.13
2022-12-03T14:08:41.352Z,44.58
2022-12-03T14:11:07.818Z,45.37
2022-12-03T14:13:34.282Z,52.88
2022-12-03T14:16:03.498Z,47.47
2022-12-03T14:18:31.414Z,50.50
2022-12-03T14:20:57.905Z,54.95
2022-12-03T14:23:24.393Z,49.77
2022-12-03T14:25:50.842Z,41.33
2022-12-03T14:28:17.326Z,51.22
2022-12-03T14:30:43.809Z,55.78
2022-12-03T14:33:10.278Z,50.35
2022-12-03T14:35:36.726Z,38.93
2022-12-03T14:38:04.254Z,52.10
2022-12-03T14:40:33.081Z,49.28
2022-12-03T14:42:59.530Z,50.88
2022-12-03T14:45:28.494Z,57.55
2022-12-03T14:47:55.017Z,53.47
2022-12-03T14:50:21.490Z,46.70
2022-12-03T14:52:47.951Z,53.53
2022-12-03T14:55:14.471Z,51.22
2022-12-03T14:57:41.389Z,53.95
2022-12-03T15:00:14.610Z,45.43
2022-12-03T15:02:41.238Z,51.05
2022-12-03T15:05:07.997Z,58.33
2022-12-03T15:07:34.663Z,39.08
2022-12-03T15:10:01.139Z,48.88
2022-12-03T15:12:27.763Z,40.83
2022-12-03T15:14:54.646Z,54.70
2022-12-03T15:17:31.035Z,55.83
2022-12-03T15:20:01.680Z,52.90
2022-12-03T15:22:28.138Z,63.00
2022-12-03T15:24:54.659Z,62.47
2022-12-03T15:27:21.141Z,56.83
2022-12-03T15:29:47.630Z,58.47
2022-12-03T15:32:16.589Z,52.72
2022-12-03T15:34:50.293Z,66.25
2022-12-03T15:37:17.249Z,57.50
2022-12-03T15:39:52.812Z,59.22
2022-12-03T15:42:22.100Z,47.97
2022-12-03T15:44:48.688Z,61.75
2022-12-03T15:47:15.112Z,63.28
2022-12-03T15:49:41.639Z,59.77
2022-12-03T15:52:18.648Z,61.17
2022-12-03T15:54:46.372Z,21.55
2022-12-03T15:57:14.322Z,60.65
2022-12-03T15:59:46.157Z,63.22
2022-12-03T16:02:12.665Z,61.00
2022-12-03T16:04:39.155Z,49.67
2022-12-03T16:07:05.664Z,56.65
2022-12-03T16:09:34.368Z,59.30
2022-12-03T16:12:00.807Z,67.40
2022-12-03T16:14:28.712Z,54.47
2022-12-03T16:16:55.279Z,66.47
2022-12-03T16:19:21.719Z,62.38
2022-12-03T16:21:48.172Z,71.68
2022-12-03T16:24:14.686Z,72.18
2022-12-03T16:26:41.116Z,72.23
2022-12-03T16:29:07.546Z,53.30
2022-12-03T16:31:34.042Z,60.70
2022-12-03T16:34:00.525Z,67.32
2022-12-03T16:36:29.959Z,50.88
2022-12-03T16:38:56.405Z,70.07
2022-12-03T16:41:25.140Z,69.22
2022-12-03T16:43:51.780Z,65.43
2022-12-03T16:46:20.674Z,66.60
2022-12-03T16:48:54.127Z,68.45
2022-12-03T16:51:20.893Z,55.47
2022-12-03T16:53:47.949Z,72.68
2022-12-03T16:56:14.846Z,62.67
2022-12-03T16:58:41.517Z,67.03
2022-12-03T17:01:08.098Z,72.78
2022-12-03T17:03:36.877Z,65.87
2022-12-03T17:06:04.242Z,70.72
2022-12-03T17:08:31.139Z,69.88
2022-12-03T17:10:57.966Z,67.40
2022-12-03T17:13:24.477Z,41.13
2022-12-03T17:15:51.371Z,80.40
2022-12-03T17:18:18.019Z,72.55
2022-12-03T17:20:44.461Z,71.22
2022-12-03T17:23:11.851Z,71.40
2022-12-03T17:25:38.302Z,63.88
2022-12-03T17:28:05.019Z,75.07
2022-12-03T17:30:31.471Z,63.63
2022-12-03T17:32:57.938Z,74.68
2022-12-03T17:35:25.055Z,65.50
2022-12-03T17:37:52.820Z,42.30
2022-12-03T17:40:21.421Z,62.30
2022-12-03T17:42:48.313Z,81.57
2022-12-03T17:45:14.938Z,76.90
2022-12-03T17:47:43.811Z,75.45
2022-12-03T17:50:12.873Z,68.70
2022-12-03T17:52:40.843Z,72.20
2022-12-03T17:55:15.712Z,68.60
2022-12-03T17:57:44.633Z,79.45
2022-12-03T18:00:11.793Z,71.07
2022-12-03T18:02:38.263Z,76.63
2022-12-03T18:05:04.904Z,73.83
2022-12-03T18:07:31.380Z,69.80
2022-12-03T18:10:00.529Z,61.58
2022-12-03T18:12:27.161Z,76.85
2022-12-03T18:14:53.695Z,69.05
2022-12-03T18:17:20.190Z,79.77
2022-12-03T18:19:46.630Z,70.78
2022-12-03T18:22:16.040Z,73.10
2022-12-03T18:24:44.937Z,68.80
2022-12-03T18:27:12.602Z,76.32
2022-12-03T18:29:39.161Z,81.17
2022-12-03T18:32:27.008Z,72.32
2022-12-03T18:34:55.250Z,70.40
2022-12-03T18:37:21.741Z,70.90
2022-12-03T18:40:20.209Z,72.28
2022-12-03T18:42:47.470Z,76.87
2022-12-03T18:45:14.893Z,72.20
2022-12-03T18:47:41.449Z,70.10
2022-12-03T18:50:15.647Z,58.83
2022-12-03T18:52:42.245Z,47.20
2022-12-03T18:55:10.840Z,83.13
2022-12-03T18:57:43.397Z,61.60
2022-12-03T19:00:14.092Z,67.45
2022-12-03T19:05:27.286Z,34.97
2022-12-03T19:07:57.937Z,66.83
2022-12-03T19:10:24.728Z,79.03
2022-12-03T19:12:51.444Z,62.67
2022-12-03T19:15:18.019Z,70.13
2022-12-03T19:17:50.614Z,65.88
2022-12-03T19:20:17.255Z,79.80
2022-12-03T19:22:44.821Z,75.63
2022-12-03T19:25:11.332Z,74.40
2022-12-03T19:27:37.825Z,68.75
2022-12-03T19:30:05.513Z,74.70
2022-12-03T19:32:35.715Z,73.43
2022-12-03T19:35:05.039Z,61.63
2022-12-03T19:37:33.622Z,69.00
2022-12-03T19:40:00.967Z,69.00
2022-12-03T19:42:27.631Z,72.38
2022-12-03T19:44:54.180Z,40.87
2022-12-03T19:47:24.791Z,70.88
2022-12-03T19:49:53.005Z,76.47
2022-12-03T19:52:20.098Z,75.18
2022-12-03T19:54:47.332Z,74.40
2022-12-03T19:59:54.941Z,68.32
2022-12-03T20:02:23.238Z,81.15
2022-12-03T20:04:50.059Z,75.38
2022-12-03T20:07:16.511Z,75.90
2022-12-03T20:09:43.029Z,76.23
2022-12-03T20:12:09.497Z,80.50
2022-12-03T20:14:35.964Z,81.38
2022-12-03T20:17:02.504Z,83.20
2022-12-03T20:19:31.605Z,95.93
2022-12-03T20:22:02.574Z,83.13
2022-12-03T20:24:29.562Z,88.80
2022-12-03T20:26:59.959Z,84.60
2022-12-03T20:29:26.468Z,83.20
2022-12-03T20:31:53.071Z,83.00
2022-12-03T20:34:19.652Z,77.57
2022-12-03T20:36:46.126Z,71.53
2022-12-03T20:39:12.655Z,74.95
2022-12-03T20:41:39.063Z,72.28
2022-12-03T20:44:08.039Z,78.70
2022-12-03T20:46:34.680Z,71.67
2022-12-03T20:49:01.208Z,77.43
2022-12-03T20:51:29.934Z,73.10
2022-12-03T20:53:57.603Z,77.07
2022-12-03T20:56:31.153Z,71.57
2022-12-03T20:59:07.536Z,66.87
2022-12-03T21:01:35.764Z,75.30
2022-12-03T21:04:04.137Z,70.20
2022-12-03T21:06:31.343Z,67.80
2022-12-03T21:08:59.048Z,64.05
2022-12-03T21:11:29.368Z,72.57
2022-12-03T21:13:55.962Z,73.53
2022-12-03T21:16:51.899Z,82.78
2022-12-03T21:19:12.399Z,77.03
2022-12-03T21:21:38.857Z,69.65
2022-12-03T21:24:05.542Z,70.57
2022-12-03T21:26:33.607Z,59.88
2022-12-03T21:29:00.040Z,75.97
2022-12-03T21:31:27.257Z,71.50
2022-12-03T21:33:54.764Z,71.30
2022-12-03T21:36:21.523Z,77.60
2022-12-03T21:38:48.266Z,62.13
2022-12-03T21:41:14.726Z,73.03
2022-12-03T21:43:41.742Z,75.95
2022-12-03T21:47:11.509Z,83.63
2022-12-03T21:48:57.050Z,76.03
2022-12-03T21:51:23.549Z,76.65
2022-12-03T21:53:50.023Z,71.05
2022-12-03T21:56:19.428Z,67.75
2022-12-03T21:58:46.287Z,72.00
2022-12-03T22:01:23.765Z,75.17
2022-12-03T22:03:50.803Z,69.10
2022-12-03T22:06:17.854Z,72.18
2022-12-03T22:08:44.504Z,70.28
2022-12-03T22:11:19.060Z,74.85
2022-12-03T22:13:45.656Z,72.30
2022-12-03T22:16:17.600Z,67.25
2022-12-03T22:18:44.301Z,78.88
2022-12-03T22:21:13.325Z,75.57
2022-12-03T22:23:40.297Z,76.18
2022-12-03T22:26:09.415Z,69.20
2022-12-03T22:28:37.339Z,81.60
2022-12-03T22:31:08.019Z,73.78
2022-12-03T22:33:34.785Z,66.57
2022-12-03T22:36:22.118Z,70.38
2022-12-03T22:38:49.626Z,79.60
2022-12-03T22:41:16.959Z,76.93
2022-12-03T22:43:43.393Z,71.65
2022-12-03T22:46:13.354Z,76.00
2022-12-03T22:48:43.800Z,73.10
2022-12-03T22:51:16.083Z,71.27
2022-12-03T22:53:42.500Z,71.80
2022-12-03T22:56:09.050Z,71.13
2022-12-03T22:58:37.313Z,73.80
2022-12-03T23:01:03.810Z,71.07
2022-12-03T23:03:30.700Z,75.93
2022-12-03T23:05:57.187Z,64.18
2022-12-03T23:08:24.771Z,78.65
2022-12-03T23:10:52.237Z,70.93
2022-12-03T23:13:19.554Z,66.18
2022-12-03T23:15:47.510Z,73.60
2022-12-03T23:18:14.360Z,68.38
2022-12-03T23:20:45.077Z,73.20
2022-12-03T23:23:11.881Z,68.78
2022-12-03T23:25:38.396Z,70.47
2022-12-03T23:28:05.565Z,72.27
2022-12-03T23:30:35.962Z,70.47
2022-12-03T23:33:02.851Z,72.40
2022-12-03T23:35:29.346Z,73.45
2022-12-03T23:37:55.800Z,63.50
2022-12-03T23:40:22.296Z,68.57
2022-12-03T23:42:48.807Z,73.95
2022-12-03T23:45:15.234Z,75.70
2022-12-03T23:47:41.689Z,73.60
2022-12-03T23:50:08.363Z,63.55
2022-12-03T23:52:38.100Z,68.30
2022-12-03T23:55:05.380Z,68.90
2022-12-03T23:57:32.035Z,71.18
2022-12-03T23:59:58.467Z,70.40
